Koushinmaru No.5 — JL6695 — position and weather

sailwx.info

Track history (hours):
 
Tides and Currents Weather Stations Pressure Air Temp Water Temp Dewpoint Dewpoint Depression Visibility Wind Speed Wind Dir Waves Ship Positions

Koushinmaru No.5

Last reported at 2016-Jul-23 11:32 UTC. Time now 2016-Jul-26 06:30 UTC.
Position N 35°01' E 140°11'.

Length 75 m; draft 4.8 m.

Type: Cargo ship. MMSI: 431301703.

Date/timePositionNaut miles runAvg speedWind from/ knotsBaromVisibWave heightAir tempDewpointWater temp
2016-Jul-23 11:32N 35°01' E 140°11'14 9.8
2016-Jul-23 10:08N 34°53' E 139°58'14 7.3
2016-Jul-23 08:17N 35°02' E 139°44'811.2
2016-Jul-23 07:33N 35°10' E 139°46'1010.0
2016-Jul-23 06:33N 35°19' E 139°43'7 0.4
2016-Jul-22 14:05N 35°21' E 139°51'2 3.5
2016-Jul-22 13:33N 35°22' E 139°49'0 0.3
2016-Jul-22 12:33N 35°22' E 139°49'0 0.0
2016-Jul-22 11:33N 35°22' E 139°49'0 0.0
2016-Jul-22 10:33N 35°22' E 139°49'7 6.6
2016-Jul-22 09:33N 35°29' E 139°51'1212.4
2016-Jul-22 08:33N 35°35' E 140°03'2 1.7
2016-Jul-22 07:33N 35°37' E 140°05'0 0.0
2016-Jul-22 05:33N 35°37' E 140°05'2 2.4
2016-Jul-22 04:33N 35°35' E 140°03'9 8.9
2016-Jul-22 03:33N 35°35' E 139°52'4 1.0
2016-Jul-21 23:25N 35°38' E 139°48'2 2.0
2016-Jul-21 22:33N 35°37' E 139°50'9 9.0
2016-Jul-21 21:33N 35°34' E 140°00'4 4.4
2016-Jul-21 20:33N 35°37' E 140°05'0 0.0
2016-Jul-21 19:33N 35°37' E 140°05'0 0.0
2016-Jul-21 18:33N 35°37' E 140°05'0 0.0
2016-Jul-21 17:33N 35°37' E 140°05'0 0.0
2016-Jul-21 16:33N 35°37' E 140°05'0 0.0
2016-Jul-21 15:33N 35°37' E 140°05'0 0.0
2016-Jul-21 14:33N 35°37' E 140°05'0 0.0
2016-Jul-21 13:33N 35°37' E 140°05'0 0.0
2016-Jul-21 12:33N 35°37' E 140°05'0 0.0
2016-Jul-21 11:33N 35°37' E 140°05'0 0.0
2016-Jul-21 10:33N 35°37' E 140°05'0 0.0
2016-Jul-21 09:33N 35°37' E 140°05'0 0.0
2016-Jul-21 08:33N 35°37' E 140°05'0 0.0
2016-Jul-21 07:33N 35°37' E 140°05'0 0.0
2016-Jul-21 06:33N 35°37' E 140°05'0 0.0
2016-Jul-21 05:33N 35°37' E 140°05'0 0.0
2016-Jul-21 04:33N 35°37' E 140°05'0 0.0
2016-Jul-21 03:33N 35°37' E 140°05'0 0.0
2016-Jul-21 02:33N 35°37' E 140°05'0 0.0
2016-Jul-21 01:33N 35°37' E 140°05'0 0.0
2016-Jul-21 00:33N 35°37' E 140°05'0 0.0
2016-Jul-20 23:33N 35°37' E 140°05'2 1.9
2016-Jul-20 22:33N 35°35' E 140°03'8 8.0
2016-Jul-20 21:33N 35°35' E 139°54'5 5.2
2016-Jul-20 20:33N 35°38' E 139°48'0 0.0
2016-Jul-20 19:33N 35°38' E 139°48'0 0.0
2016-Jul-20 18:33N 35°38' E 139°48'0 0.0
2016-Jul-20 17:33N 35°38' E 139°48'0 0.0
2016-Jul-20 16:33N 35°38' E 139°48'0 0.0
2016-Jul-20 15:33N 35°38' E 139°48'0 0.0
2016-Jul-20 14:33N 35°38' E 139°48'0 0.0
2016-Jul-20 13:33N 35°38' E 139°48'0 0.0
2016-Jul-20 12:33N 35°38' E 139°48'0 0.0
2016-Jul-20 11:33N 35°38' E 139°48'0 0.0
2016-Jul-20 10:33N 35°38' E 139°48'0 0.0
2016-Jul-20 09:34N 35°38' E 139°48'0 0.0
2016-Jul-20 08:33N 35°38' E 139°48'0 0.0
2016-Jul-20 07:33N 35°38' E 139°48'1 0.6
2016-Jul-20 06:34N 35°37' E 139°48'9 9.3
2016-Jul-20 05:33N 35°28' E 139°51'1111.0
2016-Jul-20 04:33N 35°19' E 139°44'  
2016-Jul-14 21:13N 34°38' E 134°54'710.4
2016-Jul-14 20:32N 34°37' E 135°03'9 9.0
2016-Jul-14 19:33N 34°28' E 135°04'1410.7
2016-Jul-14 18:17N 34°15' E 134°59'  
Track history (hours):
 
Tides and Currents Weather Stations Pressure Air Temp Water Temp Dewpoint Dewpoint Depression Visibility Wind Speed Wind Dir Waves Ship Positions

Koushinmaru No.5

Last reported at 2016-Jul-23 11:32 UTC. Time now 2016-Jul-26 06:30 UTC.
Position N 35°01' E 140°11'.

Length 75 m; draft 4.8 m.

Type: Cargo ship. MMSI: 431301703.

Date/timePositionNaut miles runAvg speedWind from/ knotsBaromVisibWave heightAir tempDewpointWater temp
2016-Jul-23 11:32N 35°01' E 140°11'14 9.8
2016-Jul-23 10:08N 34°53' E 139°58'14 7.3
2016-Jul-23 08:17N 35°02' E 139°44'811.2
2016-Jul-23 07:33N 35°10' E 139°46'1010.0
2016-Jul-23 06:33N 35°19' E 139°43'7 0.4
2016-Jul-22 14:05N 35°21' E 139°51'2 3.5
2016-Jul-22 13:33N 35°22' E 139°49'0 0.3
2016-Jul-22 12:33N 35°22' E 139°49'0 0.0
2016-Jul-22 11:33N 35°22' E 139°49'0 0.0
2016-Jul-22 10:33N 35°22' E 139°49'7 6.6
2016-Jul-22 09:33N 35°29' E 139°51'1212.4
2016-Jul-22 08:33N 35°35' E 140°03'2 1.7
2016-Jul-22 07:33N 35°37' E 140°05'0 0.0
2016-Jul-22 05:33N 35°37' E 140°05'2 2.4
2016-Jul-22 04:33N 35°35' E 140°03'9 8.9
2016-Jul-22 03:33N 35°35' E 139°52'4 1.0
2016-Jul-21 23:25N 35°38' E 139°48'2 2.0
2016-Jul-21 22:33N 35°37' E 139°50'9 9.0
2016-Jul-21 21:33N 35°34' E 140°00'4 4.4
2016-Jul-21 20:33N 35°37' E 140°05'0 0.0
2016-Jul-21 19:33N 35°37' E 140°05'0 0.0
2016-Jul-21 18:33N 35°37' E 140°05'0 0.0
2016-Jul-21 17:33N 35°37' E 140°05'0 0.0
2016-Jul-21 16:33N 35°37' E 140°05'0 0.0
2016-Jul-21 15:33N 35°37' E 140°05'0 0.0
2016-Jul-21 14:33N 35°37' E 140°05'0 0.0
2016-Jul-21 13:33N 35°37' E 140°05'0 0.0
2016-Jul-21 12:33N 35°37' E 140°05'0 0.0
2016-Jul-21 11:33N 35°37' E 140°05'0 0.0
2016-Jul-21 10:33N 35°37' E 140°05'0 0.0
2016-Jul-21 09:33N 35°37' E 140°05'0 0.0
2016-Jul-21 08:33N 35°37' E 140°05'0 0.0
2016-Jul-21 07:33N 35°37' E 140°05'0 0.0
2016-Jul-21 06:33N 35°37' E 140°05'0 0.0
2016-Jul-21 05:33N 35°37' E 140°05'0 0.0
2016-Jul-21 04:33N 35°37' E 140°05'0 0.0
2016-Jul-21 03:33N 35°37' E 140°05'0 0.0
2016-Jul-21 02:33N 35°37' E 140°05'0 0.0
2016-Jul-21 01:33N 35°37' E 140°05'0 0.0
2016-Jul-21 00:33N 35°37' E 140°05'0 0.0
2016-Jul-20 23:33N 35°37' E 140°05'2 1.9
2016-Jul-20 22:33N 35°35' E 140°03'8 8.0
2016-Jul-20 21:33N 35°35' E 139°54'5 5.2
2016-Jul-20 20:33N 35°38' E 139°48'0 0.0
2016-Jul-20 19:33N 35°38' E 139°48'0 0.0
2016-Jul-20 18:33N 35°38' E 139°48'0 0.0
2016-Jul-20 17:33N 35°38' E 139°48'0 0.0
2016-Jul-20 16:33N 35°38' E 139°48'0 0.0
2016-Jul-20 15:33N 35°38' E 139°48'0 0.0
2016-Jul-20 14:33N 35°38' E 139°48'0 0.0
2016-Jul-20 13:33N 35°38' E 139°48'0 0.0
2016-Jul-20 12:33N 35°38' E 139°48'0 0.0
2016-Jul-20 11:33N 35°38' E 139°48'0 0.0
2016-Jul-20 10:33N 35°38' E 139°48'0 0.0
2016-Jul-20 09:34N 35°38' E 139°48'0 0.0
2016-Jul-20 08:33N 35°38' E 139°48'0 0.0
2016-Jul-20 07:33N 35°38' E 139°48'1 0.6
2016-Jul-20 06:34N 35°37' E 139°48'9 9.3
2016-Jul-20 05:33N 35°28' E 139°51'1111.0
2016-Jul-20 04:33N 35°19' E 139°44'  
2016-Jul-14 21:13N 34°38' E 134°54'710.4
2016-Jul-14 20:32N 34°37' E 135°03'9 9.0
2016-Jul-14 19:33N 34°28' E 135°04'1410.7
2016-Jul-14 18:17N 34°15' E 134°59'  

Dump ship's entire track history